sensor_id;sensor_type;location;lat;lon;timestamp;pressure;altitude;pressure_sealevel;temperature;humidity
63006;BME280;53704;52.532;6.426;2022-10-16T00:01:31;100910.13;;;11.01;100.00
63006;BME280;53704;52.532;6.426;2022-10-16T00:03:58;100911.31;;;11.07;100.00
63006;BME280;53704;52.532;6.426;2022-10-16T00:06:24;100912.34;;;11.14;100.00
63006;BME280;53704;52.532;6.426;2022-10-16T00:08:50;100911.31;;;11.07;100.00
63006;BME280;53704;52.532;6.426;2022-10-16T00:11:21;100907.59;;;11.00;100.00
63006;BME280;53704;52.532;6.426;2022-10-16T00:13:49;100913.84;;;11.09;100.00
63006;BME280;53704;52.532;6.426;2022-10-16T00:16:16;100909.13;;;10.94;100.00
63006;BME280;53704;52.532;6.426;2022-10-16T00:18:42;100910.09;;;10.93;100.00
63006;BME280;53704;52.532;6.426;2022-10-16T00:21:13;100903.69;;;10.86;100.00
63006;BME280;53704;52.532;6.426;2022-10-16T00:23:39;100913.94;;;10.82;100.00
63006;BME280;53704;52.532;6.426;2022-10-16T00:26:07;100906.75;;;10.91;100.00
63006;BME280;53704;52.532;6.426;2022-10-16T00:28:33;100917.47;;;10.83;100.00
63006;BME280;53704;52.532;6.426;2022-10-16T00:30:59;100916.97;;;10.79;100.00
63006;BME280;53704;52.532;6.426;2022-10-16T00:33:27;100909.94;;;10.95;100.00
63006;BME280;53704;52.532;6.426;2022-10-16T00:35:52;100912.63;;;10.95;100.00
63006;BME280;53704;52.532;6.426;2022-10-16T00:38:17;100909.03;;;10.78;100.00
63006;BME280;53704;52.532;6.426;2022-10-16T00:40:43;100911.91;;;10.84;100.00
63006;BME280;53704;52.532;6.426;2022-10-16T00:46:02;100912.41;;;10.80;100.00
63006;BME280;53704;52.532;6.426;2022-10-16T00:48:28;100916.78;;;10.73;100.00
63006;BME280;53704;52.532;6.426;2022-10-16T00:50:55;100919.66;;;10.79;100.00
63006;BME280;53704;52.532;6.426;2022-10-16T00:53:22;100919.13;;;10.76;100.00
63006;BME280;53704;52.532;6.426;2022-10-16T00:55:48;100920.78;;;10.68;100.00
63006;BME280;53704;52.532;6.426;2022-10-16T00:58:13;100925.50;;;10.66;100.00
63006;BME280;53704;52.532;6.426;2022-10-16T01:00:39;100924.34;;;10.69;100.00
63006;BME280;53704;52.532;6.426;2022-10-16T01:03:28;100916.09;;;10.71;100.00
63006;BME280;53704;52.532;6.426;2022-10-16T01:06:19;100906.50;;;10.76;100.00
63006;BME280;53704;52.532;6.426;2022-10-16T01:14:11;100915.53;;;10.59;100.00
63006;BME280;53704;52.532;6.426;2022-10-16T01:17:06;100921.41;;;10.54;100.00
63006;BME280;53704;52.532;6.426;2022-10-16T01:22:19;100925.34;;;10.68;100.00
63006;BME280;53704;52.532;6.426;2022-10-16T01:24:49;100926.28;;;10.50;100.00
63006;BME280;53704;52.532;6.426;2022-10-16T01:27:25;100925.44;;;10.50;100.00
63006;BME280;53704;52.532;6.426;2022-10-16T01:30:11;100931.66;;;10.50;100.00
63006;BME280;53704;52.532;6.426;2022-10-16T01:32:40;100932.00;;;10.56;100.00
63006;BME280;53704;52.532;6.426;2022-10-16T01:35:34;100924.25;;;10.53;100.00
63006;BME280;53704;52.532;6.426;2022-10-16T01:38:05;100921.38;;;10.46;100.00
63006;BME280;53704;52.532;6.426;2022-10-16T01:40:34;100918.00;;;10.44;100.00
63006;BME280;53704;52.532;6.426;2022-10-16T01:43:07;100915.31;;;10.44;100.00
63006;BME280;53704;52.532;6.426;2022-10-16T01:45:34;100902.53;;;10.46;100.00
63006;BME280;53704;52.532;6.426;2022-10-16T01:48:02;100908.41;;;10.41;100.00
63006;BME280;53704;52.532;6.426;2022-10-16T01:50:32;100900.66;;;10.46;100.00
63006;BME280;53704;52.532;6.426;2022-10-16T01:53:01;100895.50;;;10.53;100.00
63006;BME280;53704;52.532;6.426;2022-10-16T01:55:31;100902.38;;;10.47;100.00
63006;BME280;53704;52.532;6.426;2022-10-16T01:57:59;100893.31;;;10.48;100.00
63006;BME280;53704;52.532;6.426;2022-10-16T02:00:27;100900.66;;;10.46;100.00
63006;BME280;53704;52.532;6.426;2022-10-16T02:02:53;100897.50;;;10.51;100.00
63006;BME280;53704;52.532;6.426;2022-10-16T02:07:52;100896.66;;;10.50;100.00
63006;BME280;53704;52.532;6.426;2022-10-16T02:10:18;100897.66;;;10.49;100.00
63006;BME280;53704;52.532;6.426;2022-10-16T02:13:11;100897.00;;;10.56;100.00
63006;BME280;53704;52.532;6.426;2022-10-16T02:15:38;100907.97;;;10.62;100.00
63006;BME280;53704;52.532;6.426;2022-10-16T02:18:07;100911.88;;;10.68;100.00
63006;BME280;53704;52.532;6.426;2022-10-16T02:20:57;100911.03;;;10.67;100.00
63006;BME280;53704;52.532;6.426;2022-10-16T02:23:33;100910.50;;;10.64;100.00
63006;BME280;53704;52.532;6.426;2022-10-16T02:26:03;100904.63;;;10.68;100.00
63006;BME280;53704;52.532;6.426;2022-10-16T02:28:40;100912.22;;;10.73;100.00
63006;BME280;53704;52.532;6.426;2022-10-16T02:31:09;100909.03;;;10.78;100.00
63006;BME280;53704;52.532;6.426;2022-10-16T02:33:38;100906.00;;;10.73;100.00
63006;BME280;53704;52.532;6.426;2022-10-16T02:36:05;100908.19;;;10.69;100.00
63006;BME280;53704;52.532;6.426;2022-10-16T02:38:31;100914.09;;;10.73;100.00
63006;BME280;53704;52.532;6.426;2022-10-16T02:40:57;100920.31;;;10.73;100.00
63006;BME280;53704;52.532;6.426;2022-10-16T02:43:22;100924.03;;;10.72;100.00
63006;BME280;53704;52.532;6.426;2022-10-16T02:45:49;100919.81;;;10.78;100.00
63006;BME280;53704;52.532;6.426;2022-10-16T02:48:15;100914.91;;;10.73;100.00
63006;BME280;53704;52.532;6.426;2022-10-16T02:50:40;100922.66;;;10.76;100.00
63006;BME280;53704;52.532;6.426;2022-10-16T02:53:05;100929.75;;;10.77;100.00
63006;BME280;53704;52.532;6.426;2022-10-16T02:55:31;100936.81;;;10.78;100.00
63006;BME280;53704;52.532;6.426;2022-10-16T02:57:57;100935.47;;;10.82;100.00
63006;BME280;53704;52.532;6.426;2022-10-16T03:00:22;100943.59;;;10.91;100.00
63006;BME280;53704;52.532;6.426;2022-10-16T03:02:48;100956.38;;;10.89;100.00
63006;BME280;53704;52.532;6.426;2022-10-16T03:05:14;100937.88;;;10.94;100.00
63006;BME280;53704;52.532;6.426;2022-10-16T03:07:39;100933.47;;;10.84;100.00
63006;BME280;53704;52.532;6.426;2022-10-16T03:10:05;100923.41;;;10.86;100.00
63006;BME280;53704;52.532;6.426;2022-10-16T03:12:31;100936.84;;;10.86;100.00
63006;BME280;53704;52.532;6.426;2022-10-16T03:14:56;100938.19;;;10.91;100.00
63006;BME280;53704;52.532;6.426;2022-10-16T03:17:22;100942.63;;;11.00;100.00
63006;BME280;53704;52.532;6.426;2022-10-16T03:19:48;100941.63;;;11.01;100.00
63006;BME280;53704;52.532;6.426;2022-10-16T03:22:13;100943.59;;;10.91;100.00
63006;BME280;53704;52.532;6.426;2022-10-16T03:24:39;100944.44;;;10.91;100.00
63006;BME280;53704;52.532;6.426;2022-10-16T03:27:04;100956.06;;;10.92;100.00
63006;BME280;53704;52.532;6.426;2022-10-16T03:29:29;100954.72;;;10.96;100.00
63006;BME280;53704;52.532;6.426;2022-10-16T03:31:56;100961.28;;;10.93;100.00
63006;BME280;53704;52.532;6.426;2022-10-16T03:34:22;100963.63;;;10.88;100.00
63006;BME280;53704;52.532;6.426;2022-10-16T03:36:47;100962.47;;;10.99;100.00
63006;BME280;53704;52.532;6.426;2022-10-16T03:39:13;100955.00;;;10.84;100.00
63006;BME280;53704;52.532;6.426;2022-10-16T03:41:38;100952.69;;;10.90;100.00
63006;BME280;53704;52.532;6.426;2022-10-16T03:44:03;100955.38;;;10.90;100.00
63006;BME280;53704;52.532;6.426;2022-10-16T03:46:29;100944.94;;;10.86;100.00
63006;BME280;53704;52.532;6.426;2022-10-16T03:48:54;100953.38;;;11.00;100.00
63006;BME280;53704;52.532;6.426;2022-10-16T03:51:20;100945.63;;;10.97;100.00
63006;BME280;53704;52.532;6.426;2022-10-16T03:53:46;100950.34;;;10.95;100.00
63006;BME280;53704;52.532;6.426;2022-10-16T03:56:11;100954.03;;;10.94;100.00
63006;BME280;53704;52.532;6.426;2022-10-16T03:58:36;100954.53;;;10.97;100.00
63006;BME280;53704;52.532;6.426;2022-10-16T04:01:02;100951.50;;;10.92;100.00
63006;BME280;53704;52.532;6.426;2022-10-16T04:03:27;100954.34;;;10.82;100.00
63006;BME280;53704;52.532;6.426;2022-10-16T04:05:53;100954.38;;;10.99;100.00
63006;BME280;53704;52.532;6.426;2022-10-16T04:08:19;100960.09;;;10.96;100.00
63006;BME280;53704;52.532;6.426;2022-10-16T04:10:44;100963.25;;;10.83;100.00
63006;BME280;53704;52.532;6.426;2022-10-16T04:13:11;100964.94;;;10.84;100.00
63006;BME280;53704;52.532;6.426;2022-10-16T04:15:36;100973.88;;;10.84;100.00
63006;BME280;53704;52.532;6.426;2022-10-16T04:18:01;100977.03;;;10.80;100.00
63006;BME280;53704;52.532;6.426;2022-10-16T04:20:27;100979.31;;;10.93;100.00
63006;BME280;53704;52.532;6.426;2022-10-16T04:22:52;100987.88;;;10.88;100.00
63006;BME280;53704;52.532;6.426;2022-10-16T04:25:18;100989.06;;;10.94;100.00
63006;BME280;53704;52.532;6.426;2022-10-16T04:27:43;100988.50;;;10.82;100.00
63006;BME280;53704;52.532;6.426;2022-10-16T04:30:09;100989.19;;;10.84;100.00
63006;BME280;53704;52.532;6.426;2022-10-16T04:32:34;100996.59;;;10.82;100.00
63006;BME280;53704;52.532;6.426;2022-10-16T04:35:00;100999.56;;;10.71;100.00
63006;BME280;53704;52.532;6.426;2022-10-16T04:37:26;101007.88;;;10.85;100.00
63006;BME280;53704;52.532;6.426;2022-10-16T04:39:52;101015.59;;;10.80;100.00
63006;BME280;53704;52.532;6.426;2022-10-16T04:42:19;101011.88;;;10.81;100.00
63006;BME280;53704;52.532;6.426;2022-10-16T04:44:44;101018.97;;;10.82;100.00
63006;BME280;53704;52.532;6.426;2022-10-16T04:47:10;101014.06;;;10.78;100.00
63006;BME280;53704;52.532;6.426;2022-10-16T04:49:35;101020.69;;;10.92;100.00
63006;BME280;53704;52.532;6.426;2022-10-16T04:52:00;101028.09;;;10.90;100.00
63006;BME280;53704;52.532;6.426;2022-10-16T04:54:26;101027.38;;;10.79;100.00
63006;BME280;53704;52.532;6.426;2022-10-16T04:56:51;101037.78;;;10.74;100.00
63006;BME280;53704;52.532;6.426;2022-10-16T04:59:18;101037.47;;;10.77;100.00
63006;BME280;53704;52.532;6.426;2022-10-16T05:01:44;101039.44;;;10.75;100.00
63006;BME280;53704;52.532;6.426;2022-10-16T05:04:10;101050.63;;;10.80;100.00
63006;BME280;53704;52.532;6.426;2022-10-16T05:06:35;101043.16;;;10.74;100.00
63006;BME280;53704;52.532;6.426;2022-10-16T05:09:02;101046.22;;;10.79;100.00
63006;BME280;53704;52.532;6.426;2022-10-16T05:11:28;101052.13;;;10.83;100.00
63006;BME280;53704;52.532;6.426;2022-10-16T05:13:53;101049.19;;;10.94;100.00
63006;BME280;53704;52.532;6.426;2022-10-16T05:16:18;101052.03;;;10.93;100.00
63006;BME280;53704;52.532;6.426;2022-10-16T05:18:44;101044.19;;;10.81;100.00
63006;BME280;53704;52.532;6.426;2022-10-16T05:21:09;101041.00;;;10.78;100.00
63006;BME280;53704;52.532;6.426;2022-10-16T05:23:34;101043.00;;;10.76;100.00
63006;BME280;53704;52.532;6.426;2022-10-16T05:26:00;101052.41;;;10.72;100.00
63006;BME280;53704;52.532;6.426;2022-10-16T05:28:29;101057.78;;;10.72;100.00
63006;BME280;53704;52.532;6.426;2022-10-16T05:30:56;101067.28;;;10.84;100.00
63006;BME280;53704;52.532;6.426;2022-10-16T05:33:22;101069.06;;;10.75;100.00
63006;BME280;53704;52.532;6.426;2022-10-16T05:35:49;101077.50;;;10.72;100.00
63006;BME280;53704;52.532;6.426;2022-10-16T05:38:15;101066.78;;;10.80;100.00
63006;BME280;53704;52.532;6.426;2022-10-16T05:40:41;101073.78;;;10.73;100.00
63006;BME280;53704;52.532;6.426;2022-10-16T05:43:06;101078.50;;;10.71;100.00
63006;BME280;53704;52.532;6.426;2022-10-16T05:45:32;101071.25;;;10.72;100.00
63006;BME280;53704;52.532;6.426;2022-10-16T05:47:57;101074.06;;;10.62;100.00
63006;BME280;53704;52.532;6.426;2022-10-16T05:50:22;101072.34;;;10.61;100.00
63006;BME280;53704;52.532;6.426;2022-10-16T05:52:48;101076.44;;;10.65;100.00
63006;BME280;53704;52.532;6.426;2022-10-16T05:55:13;101076.75;;;10.62;100.00
63006;BME280;53704;52.532;6.426;2022-10-16T05:57:39;101081.63;;;10.58;100.00
63006;BME280;53704;52.532;6.426;2022-10-16T06:00:04;101075.50;;;10.56;100.00
63006;BME280;53704;52.532;6.426;2022-10-16T06:02:30;101077.06;;;10.59;100.00
63006;BME280;53704;52.532;6.426;2022-10-16T06:04:55;101089.47;;;10.52;100.00
63006;BME280;53704;52.532;6.426;2022-10-16T06:07:22;101104.13;;;10.57;100.00
63006;BME280;53704;52.532;6.426;2022-10-16T06:09:48;101106.81;;;10.57;100.00
63006;BME280;53704;52.532;6.426;2022-10-16T06:12:15;101100.47;;;10.58;100.00
63006;BME280;53704;52.532;6.426;2022-10-16T06:14:40;101113.28;;;10.64;100.00
63006;BME280;53704;52.532;6.426;2022-10-16T06:17:05;101105.84;;;10.58;100.00
63006;BME280;53704;52.532;6.426;2022-10-16T06:19:31;101118.28;;;10.59;100.00
63006;BME280;53704;52.532;6.426;2022-10-16T06:21:56;101121.44;;;10.55;100.00
63006;BME280;53704;52.532;6.426;2022-10-16T06:24:23;101116.66;;;10.66;100.00
63006;BME280;53704;52.532;6.426;2022-10-16T06:26:49;101124.28;;;10.71;100.00
63006;BME280;53704;52.532;6.426;2022-10-16T06:29:14;101134.06;;;10.72;100.00
63006;BME280;53704;52.532;6.426;2022-10-16T06:31:39;101128.16;;;10.77;100.00
63006;BME280;53704;52.532;6.426;2022-10-16T06:34:05;101130.19;;;10.75;100.00
63006;BME280;53704;52.532;6.426;2022-10-16T06:36:34;101141.16;;;10.81;100.00
63006;BME280;53704;52.532;6.426;2022-10-16T06:39:00;101147.72;;;10.79;100.00
63006;BME280;53704;52.532;6.426;2022-10-16T06:41:25;101138.88;;;10.68;100.00
63006;BME280;53704;52.532;6.426;2022-10-16T06:43:50;101143.06;;;10.63;100.00
63006;BME280;53704;52.532;6.426;2022-10-16T06:46:19;101153.47;;;10.84;100.00
63006;BME280;53704;52.532;6.426;2022-10-16T06:48:45;101156.13;;;10.76;100.00
63006;BME280;53704;52.532;6.426;2022-10-16T06:51:13;101166.03;;;10.75;100.00
63006;BME280;53704;52.532;6.426;2022-10-16T06:53:48;101170.25;;;10.78;100.00
63006;BME280;53704;52.532;6.426;2022-10-16T06:56:23;101181.41;;;10.83;100.00
63006;BME280;53704;52.532;6.426;2022-10-16T06:58:49;101177.44;;;10.95;100.00
63006;BME280;53704;52.532;6.426;2022-10-16T07:01:16;101186.38;;;10.96;100.00
63006;BME280;53704;52.532;6.426;2022-10-16T07:03:43;101194.63;;;10.94;100.00
63006;BME280;53704;52.532;6.426;2022-10-16T07:06:12;101191.53;;;11.07;100.00
63006;BME280;53704;52.532;6.426;2022-10-16T07:08:39;101199.75;;;11.06;100.00
63006;BME280;53704;52.532;6.426;2022-10-16T07:11:08;101195.22;;;11.06;100.00
63006;BME280;53704;52.532;6.426;2022-10-16T07:13:34;101204.38;;;11.13;100.00
63006;BME280;53704;52.532;6.426;2022-10-16T07:16:15;101210.75;;;11.12;100.00
63006;BME280;53704;52.532;6.426;2022-10-16T07:18:42;101216.03;;;11.22;100.00
63006;BME280;53704;52.532;6.426;2022-10-16T07:21:10;101221.56;;;11.20;100.00
63006;BME280;53704;52.532;6.426;2022-10-16T07:23:36;101225.50;;;11.26;100.00
63006;BME280;53704;52.532;6.426;2022-10-16T07:26:03;101225.38;;;11.36;100.00
63006;BME280;53704;52.532;6.426;2022-10-16T07:28:28;101234.97;;;11.38;100.00
63006;BME280;53704;52.532;6.426;2022-10-16T07:30:55;101236.53;;;11.41;100.00
63006;BME280;53704;52.532;6.426;2022-10-16T07:33:21;101246.88;;;11.54;100.00
63006;BME280;53704;52.532;6.426;2022-10-16T07:35:51;101259.19;;;11.56;100.00
63006;BME280;53704;52.532;6.426;2022-10-16T07:38:18;101240.00;;;11.59;100.00
63006;BME280;53704;52.532;6.426;2022-10-16T07:40:43;101217.94;;;11.56;100.00
63006;BME280;53704;52.532;6.426;2022-10-16T07:43:09;101227.47;;;11.50;100.00
63006;BME280;53704;52.532;6.426;2022-10-16T07:45:34;101231.75;;;11.61;100.00
63006;BME280;53704;52.532;6.426;2022-10-16T07:47:59;101240.84;;;11.60;100.00
63006;BME280;53704;52.532;6.426;2022-10-16T07:50:25;101245.09;;;11.63;100.00
63006;BME280;53704;52.532;6.426;2022-10-16T07:52:50;101248.78;;;11.62;100.00
63006;BME280;53704;52.532;6.426;2022-10-16T07:55:15;101251.34;;;11.71;100.00
63006;BME280;53704;52.532;6.426;2022-10-16T07:57:41;101256.59;;;11.73;100.00
63006;BME280;53704;52.532;6.426;2022-10-16T08:00:07;101259.00;;;11.84;100.00
63006;BME280;53704;52.532;6.426;2022-10-16T08:02:33;101263.75;;;11.90;100.00
63006;BME280;53704;52.532;6.426;2022-10-16T08:04:58;101269.13;;;11.90;100.00
63006;BME280;53704;52.532;6.426;2022-10-16T08:07:23;101275.28;;;11.92;100.00
63006;BME280;53704;52.532;6.426;2022-10-16T08:09:49;101286.56;;;11.96;100.00
63006;BME280;53704;52.532;6.426;2022-10-16T08:12:16;101283.22;;;11.94;100.00
63006;BME280;53704;52.532;6.426;2022-10-16T08:14:42;101283.06;;;12.04;100.00
63006;BME280;53704;52.532;6.426;2022-10-16T08:17:08;101290.88;;;12.15;100.00
63006;BME280;53704;52.532;6.426;2022-10-16T08:19:33;101290.72;;;12.17;100.00
63006;BME280;53704;52.532;6.426;2022-10-16T08:22:00;101293.25;;;12.18;100.00
63006;BME280;53704;52.532;6.426;2022-10-16T08:24:25;101306.78;;;12.35;100.00
63006;BME280;53704;52.532;6.426;2022-10-16T08:26:53;101296.84;;;12.35;100.00
63006;BME280;53704;52.532;6.426;2022-10-16T08:29:19;101308.53;;;12.52;100.00
63006;BME280;53704;52.532;6.426;2022-10-16T08:31:44;101295.69;;;12.46;100.00
63006;BME280;53704;52.532;6.426;2022-10-16T08:34:09;101313.94;;;12.52;100.00
63006;BME280;53704;52.532;6.426;2022-10-16T08:36:35;101309.22;;;12.54;100.00
63006;BME280;53704;52.532;6.426;2022-10-16T08:39:00;101313.44;;;12.65;100.00
63006;BME280;53704;52.532;6.426;2022-10-16T08:50:21;101336.09;;;12.80;100.00
63006;BME280;53704;52.532;6.426;2022-10-16T08:52:49;101338.81;;;12.72;100.00
63006;BME280;53704;52.532;6.426;2022-10-16T08:55:41;101346.25;;;12.70;100.00
63006;BME280;53704;52.532;6.426;2022-10-16T08:58:12;101341.34;;;12.74;100.00
63006;BME280;53704;52.532;6.426;2022-10-16T09:00:39;101345.03;;;12.64;100.00
63006;BME280;53704;52.532;6.426;2022-10-16T09:06:06;101352.38;;;12.97;99.83
63006;BME280;53704;52.532;6.426;2022-10-16T09:14:37;101364.84;;;12.81;98.60
63006;BME280;53704;52.532;6.426;2022-10-16T09:23:25;101383.44;;;12.93;97.43
63006;BME280;53704;52.532;6.426;2022-10-16T09:25:52;101392.91;;;13.05;95.72
63006;BME280;53704;52.532;6.426;2022-10-16T09:28:18;101398.50;;;13.12;97.15
63006;BME280;53704;52.532;6.426;2022-10-16T09:30:44;101390.56;;;13.10;96.82
63006;BME280;53704;52.532;6.426;2022-10-16T09:33:12;101393.09;;;13.20;96.47
63006;BME280;53704;52.532;6.426;2022-10-16T09:35:39;101389.88;;;13.16;95.60
63006;BME280;53704;52.532;6.426;2022-10-16T09:38:05;101393.78;;;13.30;93.70
63006;BME280;53704;52.532;6.426;2022-10-16T09:40:33;101397.53;;;13.37;94.29
63006;BME280;53704;52.532;6.426;2022-10-16T09:46:06;101403.97;;;13.61;94.23
63006;BME280;53704;52.532;6.426;2022-10-16T09:48:43;101409.03;;;13.72;93.51
63006;BME280;53704;52.532;6.426;2022-10-16T09:53:47;101405.81;;;13.77;90.17
63006;BME280;53704;52.532;6.426;2022-10-16T09:56:26;101399.34;;;13.94;89.83
63006;BME280;53704;52.532;6.426;2022-10-16T09:58:54;101400.72;;;13.90;90.16
63006;BME280;53704;52.532;6.426;2022-10-16T10:01:22;101406.47;;;13.87;90.49
63006;BME280;53704;52.532;6.426;2022-10-16T10:03:49;101403.09;;;13.93;91.13
63006;BME280;53704;52.532;6.426;2022-10-16T10:06:18;101410.16;;;14.11;90.09
63006;BME280;53704;52.532;6.426;2022-10-16T10:14:25;101411.81;;;14.28;85.40
63006;BME280;53704;52.532;6.426;2022-10-16T10:17:06;101407.53;;;14.42;87.70
63006;BME280;53704;52.532;6.426;2022-10-16T10:19:44;101412.25;;;14.40;90.33
63006;BME280;53704;52.532;6.426;2022-10-16T10:24:56;101427.16;;;14.44;85.56
63006;BME280;53704;52.532;6.426;2022-10-16T10:27:30;101428.03;;;14.37;84.62
63006;BME280;53704;52.532;6.426;2022-10-16T10:35:42;101432.00;;;14.65;82.67
63006;BME280;53704;52.532;6.426;2022-10-16T10:46:57;101445.56;;;15.28;83.81
63006;BME280;53704;52.532;6.426;2022-10-16T10:49:39;101449.34;;;15.19;81.56
63006;BME280;53704;52.532;6.426;2022-10-16T10:57:38;101469.25;;;15.34;81.46
63006;BME280;53704;52.532;6.426;2022-10-16T11:08:19;101463.84;;;15.34;76.84
63006;BME280;53704;52.532;6.426;2022-10-16T11:10:54;101472.00;;;15.58;77.42
63006;BME280;53704;52.532;6.426;2022-10-16T11:16:18;101473.31;;;15.62;77.02
63006;BME280;53704;52.532;6.426;2022-10-16T11:18:58;101475.44;;;15.51;78.19
63006;BME280;53704;52.532;6.426;2022-10-16T11:21:26;101480.06;;;15.66;77.21
63006;BME280;53704;52.532;6.426;2022-10-16T11:26:33;101475.34;;;15.36;76.38
63006;BME280;53704;52.532;6.426;2022-10-16T11:29:01;101485.72;;;15.33;73.64
63006;BME280;53704;52.532;6.426;2022-10-16T11:31:41;101491.09;;;15.41;75.24
63006;BME280;53704;52.532;6.426;2022-10-16T11:37:05;101484.88;;;15.32;71.82
63006;BME280;53704;52.532;6.426;2022-10-16T11:39:33;101490.13;;;15.34;75.82
63006;BME280;53704;52.532;6.426;2022-10-16T11:47:54;101501.72;;;15.74;72.57
63006;BME280;53704;52.532;6.426;2022-10-16T11:55:43;101507.72;;;15.93;73.94
63006;BME280;53704;52.532;6.426;2022-10-16T11:58:38;101491.06;;;15.96;69.26
63006;BME280;53704;52.532;6.426;2022-10-16T12:03:48;101502.56;;;15.98;69.89
63006;BME280;53704;52.532;6.426;2022-10-16T12:06:34;101514.63;;;15.95;71.91
63006;BME280;53704;52.532;6.426;2022-10-16T12:09:01;101519.03;;;15.96;71.81
63006;BME280;53704;52.532;6.426;2022-10-16T12:14:18;101517.50;;;16.17;68.59
63006;BME280;53704;52.532;6.426;2022-10-16T12:16:59;101520.69;;;16.20;69.07
63006;BME280;53704;52.532;6.426;2022-10-16T12:19:27;101520.00;;;16.03;71.18
63006;BME280;53704;52.532;6.426;2022-10-16T12:21:56;101529.28;;;15.86;69.47
63006;BME280;53704;52.532;6.426;2022-10-16T12:27:00;101536.09;;;15.59;71.77
63006;BME280;53704;52.532;6.426;2022-10-16T12:29:40;101539.16;;;15.55;70.02
63006;BME280;53704;52.532;6.426;2022-10-16T12:32:38;101537.09;;;15.89;68.24
63006;BME280;53704;52.532;6.426;2022-10-16T12:35:06;101534.63;;;15.79;67.66
63006;BME280;53704;52.532;6.426;2022-10-16T12:37:42;101529.72;;;15.98;66.46
63006;BME280;53704;52.532;6.426;2022-10-16T12:40:35;101537.16;;;16.04;65.48
63006;BME280;53704;52.532;6.426;2022-10-16T12:45:45;101539.84;;;16.57;67.62
63006;BME280;53704;52.532;6.426;2022-10-16T12:48:22;101543.72;;;16.77;68.58
63006;BME280;53704;52.532;6.426;2022-10-16T12:50:47;101539.84;;;17.31;67.99
63006;BME280;53704;52.532;6.426;2022-10-16T12:53:24;101537.06;;;16.95;64.72
63006;BME280;53704;52.532;6.426;2022-10-16T12:55:59;101534.53;;;16.93;64.40
63006;BME280;53704;52.532;6.426;2022-10-16T13:01:36;101560.63;;;16.88;65.99
63006;BME280;53704;52.532;6.426;2022-10-16T13:06:55;101561.97;;;16.39;66.85
63006;BME280;53704;52.532;6.426;2022-10-16T13:09:40;101566.06;;;16.35;65.68
63006;BME280;53704;52.532;6.426;2022-10-16T13:26:34;101564.22;;;16.35;65.95
63006;BME280;53704;52.532;6.426;2022-10-16T13:29:05;101573.19;;;16.36;65.84
63006;BME280;53704;52.532;6.426;2022-10-16T13:31:32;101574.28;;;16.26;67.83
63006;BME280;53704;52.532;6.426;2022-10-16T13:33:59;101583.88;;;16.37;67.02
63006;BME280;53704;52.532;6.426;2022-10-16T13:36:26;101571.22;;;16.44;65.84
63006;BME280;53704;52.532;6.426;2022-10-16T13:39:06;101580.94;;;16.24;64.42
63006;BME280;53704;52.532;6.426;2022-10-16T13:41:32;101580.34;;;16.37;65.41
63006;BME280;53704;52.532;6.426;2022-10-16T13:43:57;101582.88;;;16.15;68.19
63006;BME280;53704;52.532;6.426;2022-10-16T13:46:24;101574.09;;;16.28;65.14
63006;BME280;53704;52.532;6.426;2022-10-16T13:49:01;101580.56;;;16.27;66.74
63006;BME280;53704;52.532;6.426;2022-10-16T13:51:27;101585.00;;;16.43;68.41
63006;BME280;53704;52.532;6.426;2022-10-16T13:53:54;101585.88;;;16.20;69.67
63006;BME280;53704;52.532;6.426;2022-10-16T13:56:21;101586.28;;;15.94;69.93
63006;BME280;53704;52.532;6.426;2022-10-16T13:59:22;101594.84;;;16.06;68.83
63006;BME280;53704;52.532;6.426;2022-10-16T14:01:49;101590.31;;;15.98;67.73
63006;BME280;53704;52.532;6.426;2022-10-16T14:04:16;101589.19;;;15.93;66.91
63006;BME280;53704;52.532;6.426;2022-10-16T14:06:45;101594.66;;;16.07;66.36
63006;BME280;53704;52.532;6.426;2022-10-16T14:09:24;101593.38;;;16.18;67.22
63006;BME280;53704;52.532;6.426;2022-10-16T14:11:54;101598.47;;;16.21;69.54
63006;BME280;53704;52.532;6.426;2022-10-16T14:14:21;101609.69;;;16.18;67.65
63006;BME280;53704;52.532;6.426;2022-10-16T14:16:47;101613.25;;;15.96;69.75
63006;BME280;53704;52.532;6.426;2022-10-16T14:21:42;101609.44;;;15.82;69.83
63006;BME280;53704;52.532;6.426;2022-10-16T14:24:21;101620.88;;;15.92;67.10
63006;BME280;53704;52.532;6.426;2022-10-16T14:26:49;101620.88;;;15.61;69.91
63006;BME280;53704;52.532;6.426;2022-10-16T14:29:18;101618.88;;;15.86;68.94
63006;BME280;53704;52.532;6.426;2022-10-16T14:31:55;101630.13;;;15.74;68.58
63006;BME280;53704;52.532;6.426;2022-10-16T14:37:08;101630.31;;;15.73;71.49
63006;BME280;53704;52.532;6.426;2022-10-16T14:39:35;101629.88;;;15.61;69.58
63006;BME280;53704;52.532;6.426;2022-10-16T14:42:01;101615.94;;;15.33;72.56
63006;BME280;53704;52.532;6.426;2022-10-16T14:44:32;101619.09;;;15.76;69.54
63006;BME280;53704;52.532;6.426;2022-10-16T14:47:06;101617.75;;;15.80;68.62
63006;BME280;53704;52.532;6.426;2022-10-16T14:49:32;101618.97;;;15.69;71.33
63006;BME280;53704;52.532;6.426;2022-10-16T14:51:58;101620.91;;;15.52;72.45
63006;BME280;53704;52.532;6.426;2022-10-16T14:54:23;101615.50;;;15.52;70.05
63006;BME280;53704;52.532;6.426;2022-10-16T14:56:57;101614.59;;;15.60;71.37
63006;BME280;53704;52.532;6.426;2022-10-16T14:59:35;101619.63;;;15.40;73.52
63006;BME280;53704;52.532;6.426;2022-10-16T15:04:41;101623.97;;;15.49;68.59
63006;BME280;53704;52.532;6.426;2022-10-16T15:07:07;101625.16;;;15.55;71.84
63006;BME280;53704;52.532;6.426;2022-10-16T15:09:33;101629.41;;;15.49;72.87